Impacts METAR Board
IDs:

KCVG - Cincinnati Intl, KY, US

Updated at: 0700 UTC 11 Dec 2018
Potential Impact None Slight Moderate High
Time 10/19Z 10/20Z 10/21Z 10/22Z 10/23Z 11/00Z 11/01Z 11/02Z 11/03Z 11/04Z 11/05Z 11/06Z 11/07Z
Temp35 34 31 29 26 25 23 22 21 18 18 16 17
Dewpt22 23 22 21 20 19 18 18 18 16 15 12 14
Altim30.23 30.22 30.22 30.23 30.24 30.25 30.26 30.25 30.24 30.23 30.24 30.23 30.22
VIS7 6 6 5 6 6 5 5 5 4 5 4 3
CIG-- -- -- -- -- -- -- -- -- -- -- -- --
CoverCLRCLRCLRCLRCLRCLRCLRCLRCLRCLRCLRCLRCLR
FltCatVFRVFRVFRMVFRVFRVFRMVFRMVFRMVFRMVFRMVFRMVFRMVFR
WX--HZHZHZHZHZHZBRBRBRBRBRBR
WDir35035034034035034035034000290250230
WSpd7 8 7 5 4 5 6 4 0 0 5 3 4
WGst-- -- -- -- -- -- -- -- -- -- -- -- --
Raw hourly METARs
KCVG 101852Z 35007KT 7SM CLR 02/M06 A3023 RMK AO2 SLP243 VIS LWR S T00171056
KCVG 101952Z 35008KT 6SM HZ CLR 01/M05 A3022 RMK AO2 SLP241 VIS LWR S T00111050
KCVG 102052Z 34007KT 6SM HZ CLR M01/M06 A3022 RMK AO2 SLP242 T10061056 55005
KCVG 102152Z 34005KT 5SM HZ CLR M02/M06 A3023 RMK AO2 SLP245 T10171061
KCVG 102252Z 35004KT 6SM HZ CLR M03/M07 A3024 RMK AO2 SLP249 T10331067
KCVG 102352Z 34005KT 6SM HZ CLR M04/M07 A3025 RMK AO2 SLP253 T10391072 10022 21044 52009
KCVG 110052Z 35006KT 5SM HZ CLR M05/M08 A3026 RMK AO2 SLP257 T10501078
KCVG 110152Z 34004KT 5SM BR CLR M06/M08 A3025 RMK AO2 SLP255 T10561078
KCVG 110252Z 00000KT 5SM BR CLR M06/M08 A3024 RMK AO2 SLP250 T10611078 58002
KCVG 110352Z 00000KT 4SM BR CLR M08/M09 A3023 RMK AO2 SLP247 I1000 T10781089
KCVG 110452Z 29005KT 5SM BR CLR M08/M09 A3024 RMK AO2 SLP248 I1000 T10781094 400221094
KCVG 110552Z 25003KT 4SM BR CLR M09/M11 A3023 RMK AO2 SLP246 I1000 I6000 T10891111 11039 21100 56003
KCVG 110652Z 23004KT 3SM BR CLR M08/M10 A3022 RMK AO2 SLP241 I1000 T10831100



Page loaded:  07:53 UTC  |   11:53 PM Pacific  |   12:53 AM Mountain  |   01:53 AM Central  |   02:53 AM Eastern

 

ADVISORIES

FORECASTS

FORECASTS

OBSERVATIONS

USER TOOLS

ABOUT US